Portada
METAR-TAF:

METAR-TAF

Aeropuertos :

Buenos Aires, Argentina

Aeroparque Jorge Newbery

latitud: 34-34S, longitud: 058-25W, altitud: 6 m

Observación

El informe se hizo hace 54 minutos, a las 17:00 UTC
Viento 7 kt del noroeste
Temperatura 25°C
Humedad 39%
Presión 1017 hPa
Visibilidad 10 km o más
sin nubes por debajo de 1500 m y sin presencia de cumulonimbus.

METAR: SABE 281700Z 32007KT CAVOK 25/10 Q1017

Hora: 14:54 (17:54 UTC)

Pronóstico

El informe se hizo hace 54 minutos, a las 17:00 UTC
Pronóstico válido del 28 a las 18 UTC al 29 a las 18 UTC
Viento 10 kt del noroeste
Visibilidad 10 km o más
sin nubes por debajo de 1500 m y sin presencia de cumulonimbus.
Evolucionando progresivamente
del 29 a las 05 UTC al 29 a las 07 UTC
Evolucionando progresivamente
del 29 a las 15 UTC al 29 a las 17 UTC
Viento 10 kt del norte-noreste

TAF: SABE 281700Z 2818/2918 31010KT CAVOK TX25/2918Z TN14/2909Z BECMG 2905/2907 2900KT BECMG 2915/2917 02010KT

Observaciones y pronósticos meteorológicos de más de 4000 aeropuertos (mensajes METAR y TAF).

Los puntos amarillos y rojos representan las estaciones disponibles.

Ponga el ratón en el punto deseado para ver el nombre de la estación.

Haga clic para ver las observaciones y los pronósticos meteorológicos.

Para cambiar el mapa : haga clic en los botones verdes con una cruz de color negro para hacer un zoom, en el botón verde con un guión para alejar o en las flechas verdes para mapas adyacentes.


METAR-TAF: